sensor_id;sensor_type;location;lat;lon;timestamp;pressure;altitude;pressure_sealevel;temperature;humidity
73341;BME280;61578;52.002;5.468;2024-01-15T00:00:16;100314.16;;;3.25;85.42
73341;BME280;61578;52.002;5.468;2024-01-15T00:00:47;100308.91;;;3.25;85.06
73341;BME280;61578;52.002;5.468;2024-01-15T00:01:18;100291.19;;;3.10;85.24
73341;BME280;61578;52.002;5.468;2024-01-15T00:01:49;100302.94;;;3.21;85.25
73341;BME280;61578;52.002;5.468;2024-01-15T00:02:20;100309.81;;;3.24;85.04
73341;BME280;61578;52.002;5.468;2024-01-15T00:02:50;100311.66;;;3.22;85.03
73341;BME280;61578;52.002;5.468;2024-01-15T00:03:21;100291.31;;;3.07;84.74
73341;BME280;61578;52.002;5.468;2024-01-15T00:03:52;100294.72;;;3.09;84.93
73341;BME280;61578;52.002;5.468;2024-01-15T00:04:23;100297.16;;;3.13;85.24
73341;BME280;61578;52.002;5.468;2024-01-15T00:04:53;100304.03;;;3.16;84.74
73341;BME280;61578;52.002;5.468;2024-01-15T00:05:24;100304.19;;;3.13;85.15
73341;BME280;61578;52.002;5.468;2024-01-15T00:05:55;100304.97;;;3.15;85.05
73341;BME280;61578;52.002;5.468;2024-01-15T00:06:25;100313.88;;;3.11;84.41
73341;BME280;61578;52.002;5.468;2024-01-15T00:06:57;100310.41;;;3.10;84.86
73341;BME280;61578;52.002;5.468;2024-01-15T00:07:28;100298.25;;;3.08;84.94
73341;BME280;61578;52.002;5.468;2024-01-15T00:07:58;100305.16;;;3.10;85.42
73341;BME280;61578;52.002;5.468;2024-01-15T00:08:29;100306.91;;;3.10;85.12
73341;BME280;61578;52.002;5.468;2024-01-15T00:09:00;100282.13;;;2.96;84.85
73341;BME280;61578;52.002;5.468;2024-01-15T00:09:30;100294.19;;;3.01;85.29
73341;BME280;61578;52.002;5.468;2024-01-15T00:10:02;100302.81;;;3.04;85.11
73341;BME280;61578;52.002;5.468;2024-01-15T00:10:33;100307.25;;;3.02;85.23
73341;BME280;61578;52.002;5.468;2024-01-15T00:11:04;100296.69;;;3.04;85.83
73341;BME280;61578;52.002;5.468;2024-01-15T00:11:35;100295.69;;;3.06;85.63
73341;BME280;61578;52.002;5.468;2024-01-15T00:12:06;100297.56;;;3.04;85.38
73341;BME280;61578;52.002;5.468;2024-01-15T00:12:37;100298.41;;;3.05;85.39
73341;BME280;61578;52.002;5.468;2024-01-15T00:13:08;100294.03;;;3.05;85.32
73341;BME280;61578;52.002;5.468;2024-01-15T00:13:39;100305.44;;;3.04;85.11
73341;BME280;61578;52.002;5.468;2024-01-15T00:14:10;100292.53;;;2.98;85.03
73341;BME280;61578;52.002;5.468;2024-01-15T00:14:41;100288.44;;;2.92;85.07
73341;BME280;61578;52.002;5.468;2024-01-15T00:15:12;100295.16;;;2.98;85.64
73341;BME280;61578;52.002;5.468;2024-01-15T00:15:43;100292.53;;;2.98;85.46
73341;BME280;61578;52.002;5.468;2024-01-15T00:16:14;100283.31;;;2.89;85.58
73341;BME280;61578;52.002;5.468;2024-01-15T00:16:44;100288.22;;;2.97;85.21
73341;BME280;61578;52.002;5.468;2024-01-15T00:17:15;100284.94;;;2.92;85.45
73341;BME280;61578;52.002;5.468;2024-01-15T00:17:46;100297.94;;;2.95;85.44
73341;BME280;61578;52.002;5.468;2024-01-15T00:18:17;100290.19;;;2.92;85.25
73341;BME280;61578;52.002;5.468;2024-01-15T00:18:47;100288.38;;;2.94;85.57
73341;BME280;61578;52.002;5.468;2024-01-15T00:19:18;100294.25;;;2.99;85.63
73341;BME280;61578;52.002;5.468;2024-01-15T00:19:49;100285.88;;;2.91;85.44
73341;BME280;61578;52.002;5.468;2024-01-15T00:20:19;100284.91;;;2.93;85.32
73341;BME280;61578;52.002;5.468;2024-01-15T00:20:50;100295.50;;;2.90;84.99
73341;BME280;61578;52.002;5.468;2024-01-15T00:21:21;100293.78;;;2.89;84.60
73341;BME280;61578;52.002;5.468;2024-01-15T00:21:51;100277.69;;;2.77;84.90
73341;BME280;61578;52.002;5.468;2024-01-15T00:22:25;100281.81;;;2.84;84.85
73341;BME280;61578;52.002;5.468;2024-01-15T00:22:57;100297.25;;;2.90;85.22
73341;BME280;61578;52.002;5.468;2024-01-15T00:23:28;100276.78;;;2.78;84.81
73341;BME280;61578;52.002;5.468;2024-01-15T00:23:58;100285.44;;;2.80;85.12
73341;BME280;61578;52.002;5.468;2024-01-15T00:24:29;100289.78;;;2.81;84.83
73341;BME280;61578;52.002;5.468;2024-01-15T00:25:00;100289.94;;;2.76;84.71
73341;BME280;61578;52.002;5.468;2024-01-15T00:25:31;100294.22;;;2.79;85.41
73341;BME280;61578;52.002;5.468;2024-01-15T00:26:01;100295.13;;;2.78;85.56
73341;BME280;61578;52.002;5.468;2024-01-15T00:26:32;100292.41;;;2.81;85.30
73341;BME280;61578;52.002;5.468;2024-01-15T00:27:04;100286.63;;;2.73;84.86
73341;BME280;61578;52.002;5.468;2024-01-15T00:27:35;100280.59;;;2.71;85.40
73341;BME280;61578;52.002;5.468;2024-01-15T00:28:06;100290.69;;;2.80;85.63
73341;BME280;61578;52.002;5.468;2024-01-15T00:28:37;100284.66;;;2.78;85.46
73341;BME280;61578;52.002;5.468;2024-01-15T00:29:10;100284.91;;;2.72;85.53
73341;BME280;61578;52.002;5.468;2024-01-15T00:29:41;100290.81;;;2.77;85.06
73341;BME280;61578;52.002;5.468;2024-01-15T00:30:12;100292.47;;;2.79;85.31
73341;BME280;61578;52.002;5.468;2024-01-15T00:30:43;100283.75;;;2.79;85.06
73341;BME280;61578;52.002;5.468;2024-01-15T00:31:16;100287.44;;;2.75;85.10
73341;BME280;61578;52.002;5.468;2024-01-15T00:31:48;100284.00;;;2.73;84.87
73341;BME280;61578;52.002;5.468;2024-01-15T00:32:18;100272.13;;;2.64;84.57
73341;BME280;61578;52.002;5.468;2024-01-15T00:32:50;100286.75;;;2.70;85.36
73341;BME280;61578;52.002;5.468;2024-01-15T00:33:21;100283.31;;;2.68;85.01
73341;BME280;61578;52.002;5.468;2024-01-15T00:33:51;100281.50;;;2.70;85.02
73341;BME280;61578;52.002;5.468;2024-01-15T00:34:22;100280.59;;;2.71;84.83
73341;BME280;61578;52.002;5.468;2024-01-15T00:34:53;100286.75;;;2.70;85.07
73341;BME280;61578;52.002;5.468;2024-01-15T00:35:23;100265.41;;;2.57;85.34
73341;BME280;61578;52.002;5.468;2024-01-15T00:35:54;100281.75;;;2.64;85.39
73341;BME280;61578;52.002;5.468;2024-01-15T00:36:25;100280.00;;;2.64;85.06
73341;BME280;61578;52.002;5.468;2024-01-15T00:36:56;100284.22;;;2.67;85.28
73341;BME280;61578;52.002;5.468;2024-01-15T00:37:27;100276.56;;;2.62;85.04
73341;BME280;61578;52.002;5.468;2024-01-15T00:37:58;100277.28;;;2.66;85.02
73341;BME280;61578;52.002;5.468;2024-01-15T00:38:28;100276.53;;;2.64;85.28
73341;BME280;61578;52.002;5.468;2024-01-15T00:38:59;100281.81;;;2.62;85.27
73341;BME280;61578;52.002;5.468;2024-01-15T00:39:30;100269.56;;;2.63;85.39
73341;BME280;61578;52.002;5.468;2024-01-15T00:40:01;100275.78;;;2.60;84.99
73341;BME280;61578;52.002;5.468;2024-01-15T00:40:32;100273.28;;;2.57;85.11
73341;BME280;61578;52.002;5.468;2024-01-15T00:41:02;100270.66;;;2.57;85.11
73341;BME280;61578;52.002;5.468;2024-01-15T00:41:33;100271.63;;;2.54;85.30
73341;BME280;61578;52.002;5.468;2024-01-15T00:42:04;100275.91;;;2.57;85.20
73341;BME280;61578;52.002;5.468;2024-01-15T00:42:35;100260.38;;;2.52;85.54
73341;BME280;61578;52.002;5.468;2024-01-15T00:43:05;100268.09;;;2.55;85.58
73341;BME280;61578;52.002;5.468;2024-01-15T00:43:37;100274.06;;;2.59;85.60
73341;BME280;61578;52.002;5.468;2024-01-15T00:44:08;100251.72;;;2.50;85.64
73341;BME280;61578;52.002;5.468;2024-01-15T00:44:39;100271.50;;;2.57;85.60
73341;BME280;61578;52.002;5.468;2024-01-15T00:45:10;100261.09;;;2.56;85.94
73341;BME280;61578;52.002;5.468;2024-01-15T00:45:40;100269.56;;;2.63;85.58
73341;BME280;61578;52.002;5.468;2024-01-15T00:46:11;100269.56;;;2.63;85.88
73341;BME280;61578;52.002;5.468;2024-01-15T00:46:44;100267.84;;;2.62;85.42
73341;BME280;61578;52.002;5.468;2024-01-15T00:47:18;100265.19;;;2.63;85.09
73341;BME280;61578;52.002;5.468;2024-01-15T00:47:49;100266.16;;;2.61;85.19
73341;BME280;61578;52.002;5.468;2024-01-15T00:48:20;100240.44;;;2.48;85.17
73341;BME280;61578;52.002;5.468;2024-01-15T00:48:50;100264.31;;;2.63;85.21
73341;BME280;61578;52.002;5.468;2024-01-15T00:49:21;100240.31;;;2.51;85.39
73341;BME280;61578;52.002;5.468;2024-01-15T00:49:52;100258.94;;;2.66;85.62
73341;BME280;61578;52.002;5.468;2024-01-15T00:50:23;100253.84;;;2.63;85.62
73341;BME280;61578;52.002;5.468;2024-01-15T00:50:53;100262.34;;;2.68;85.51
73341;BME280;61578;52.002;5.468;2024-01-15T00:51:24;100256.25;;;2.67;85.32
73341;BME280;61578;52.002;5.468;2024-01-15T00:51:55;100252.94;;;2.64;85.03
73341;BME280;61578;52.002;5.468;2024-01-15T00:52:26;100241.78;;;2.58;85.08
73341;BME280;61578;52.002;5.468;2024-01-15T00:52:56;100251.28;;;2.61;84.85
73341;BME280;61578;52.002;5.468;2024-01-15T00:53:27;100247.91;;;2.57;84.78
73341;BME280;61578;52.002;5.468;2024-01-15T00:53:58;100248.03;;;2.54;84.83
73341;BME280;61578;52.002;5.468;2024-01-15T00:54:29;100247.13;;;2.55;84.96
73341;BME280;61578;52.002;5.468;2024-01-15T00:54:59;100244.72;;;2.51;84.69
73341;BME280;61578;52.002;5.468;2024-01-15T00:55:30;100226.81;;;2.40;84.62
73341;BME280;61578;52.002;5.468;2024-01-15T00:56:01;100243.91;;;2.49;84.59
73341;BME280;61578;52.002;5.468;2024-01-15T00:56:33;100228.63;;;2.38;85.04
73341;BME280;61578;52.002;5.468;2024-01-15T00:57:04;100235.56;;;2.39;84.96
73341;BME280;61578;52.002;5.468;2024-01-15T00:57:35;100239.09;;;2.38;84.83
73341;BME280;61578;52.002;5.468;2024-01-15T00:58:06;100238.31;;;2.36;84.91
73341;BME280;61578;52.002;5.468;2024-01-15T00:58:36;100246.09;;;2.38;84.78
73341;BME280;61578;52.002;5.468;2024-01-15T00:59:07;100240.97;;;2.35;84.95
73341;BME280;61578;52.002;5.468;2024-01-15T00:59:40;100236.75;;;2.32;85.02
73341;BME280;61578;52.002;5.468;2024-01-15T01:00:12;100243.59;;;2.35;85.01
73341;BME280;61578;52.002;5.468;2024-01-15T01:00:43;100250.69;;;2.33;85.02
73341;BME280;61578;52.002;5.468;2024-01-15T01:01:13;100246.44;;;2.30;84.82
73341;BME280;61578;52.002;5.468;2024-01-15T01:01:45;100230.94;;;2.24;84.77
73341;BME280;61578;52.002;5.468;2024-01-15T01:02:16;100238.69;;;2.27;85.20
73341;BME280;61578;52.002;5.468;2024-01-15T01:02:47;100242.22;;;2.26;84.89
73341;BME280;61578;52.002;5.468;2024-01-15T01:03:18;100242.22;;;2.26;84.89
73341;BME280;61578;52.002;5.468;2024-01-15T01:03:48;100244.97;;;2.23;85.00
73341;BME280;61578;52.002;5.468;2024-01-15T01:04:19;100241.66;;;2.18;85.38
73341;BME280;61578;52.002;5.468;2024-01-15T01:04:50;100239.72;;;2.23;85.19
73341;BME280;61578;52.002;5.468;2024-01-15T01:05:21;100241.59;;;2.19;85.21
73341;BME280;61578;52.002;5.468;2024-01-15T01:05:51;100237.44;;;2.14;85.14
73341;BME280;61578;52.002;5.468;2024-01-15T01:06:22;100230.81;;;2.05;84.96
73341;BME280;61578;52.002;5.468;2024-01-15T01:06:53;100246.16;;;2.14;85.14
73341;BME280;61578;52.002;5.468;2024-01-15T01:07:23;100222.09;;;2.05;85.41
73341;BME280;61578;52.002;5.468;2024-01-15T01:07:54;100242.63;;;2.15;85.01
73341;BME280;61578;52.002;5.468;2024-01-15T01:08:25;100248.72;;;2.16;85.26
73341;BME280;61578;52.002;5.468;2024-01-15T01:08:55;100231.72;;;2.04;85.15
73341;BME280;61578;52.002;5.468;2024-01-15T01:09:26;100248.06;;;2.11;84.91
73341;BME280;61578;52.002;5.468;2024-01-15T01:10:00;100243.72;;;2.10;85.33
73341;BME280;61578;52.002;5.468;2024-01-15T01:10:31;100241.28;;;2.05;85.08
73341;BME280;61578;52.002;5.468;2024-01-15T01:11:01;100239.47;;;2.07;85.04
73341;BME280;61578;52.002;5.468;2024-01-15T01:11:32;100249.94;;;2.07;85.36
73341;BME280;61578;52.002;5.468;2024-01-15T01:12:03;100243.84;;;2.07;85.49
73341;BME280;61578;52.002;5.468;2024-01-15T01:12:34;100228.50;;;1.98;85.73
73341;BME280;61578;52.002;5.468;2024-01-15T01:13:04;100242.94;;;2.08;85.72
73341;BME280;61578;52.002;5.468;2024-01-15T01:13:35;100238.59;;;2.07;85.59
73341;BME280;61578;52.002;5.468;2024-01-15T01:14:06;100247.22;;;2.10;85.92
73341;BME280;61578;52.002;5.468;2024-01-15T01:14:37;100239.47;;;2.07;85.86
73341;BME280;61578;52.002;5.468;2024-01-15T01:15:07;100239.47;;;2.07;85.75
73341;BME280;61578;52.002;5.468;2024-01-15T01:15:38;100248.91;;;2.11;85.80
73341;BME280;61578;52.002;5.468;2024-01-15T01:16:09;100252.38;;;2.12;86.07
73341;BME280;61578;52.002;5.468;2024-01-15T01:16:40;100242.78;;;2.12;86.11
73341;BME280;61578;52.002;5.468;2024-01-15T01:17:11;100247.09;;;2.13;86.07
73341;BME280;61578;52.002;5.468;2024-01-15T01:17:41;100242.69;;;2.14;86.23
73341;BME280;61578;52.002;5.468;2024-01-15T01:18:12;100248.72;;;2.16;85.93
73341;BME280;61578;52.002;5.468;2024-01-15T01:18:43;100231.56;;;2.09;86.20
73341;BME280;61578;52.002;5.468;2024-01-15T01:19:14;100250.31;;;2.20;85.90
73341;BME280;61578;52.002;5.468;2024-01-15T01:19:44;100243.38;;;2.19;85.90
73341;BME280;61578;52.002;5.468;2024-01-15T01:20:15;100242.50;;;2.18;86.08
73341;BME280;61578;52.002;5.468;2024-01-15T01:20:46;100251.13;;;2.22;86.02
73341;BME280;61578;52.002;5.468;2024-01-15T01:21:17;100251.06;;;2.24;85.80
73341;BME280;61578;52.002;5.468;2024-01-15T01:21:48;100232.00;;;2.20;85.59
73341;BME280;61578;52.002;5.468;2024-01-15T01:22:19;100250.22;;;2.23;85.87
73341;BME280;61578;52.002;5.468;2024-01-15T01:22:50;100233.06;;;2.14;85.78
73341;BME280;61578;52.002;5.468;2024-01-15T01:23:20;100239.94;;;2.17;85.80
73341;BME280;61578;52.002;5.468;2024-01-15T01:23:51;100238.06;;;2.20;85.61
73341;BME280;61578;52.002;5.468;2024-01-15T01:24:22;100244.97;;;2.23;85.85
73341;BME280;61578;52.002;5.468;2024-01-15T01:24:53;100242.34;;;2.23;85.97
73341;BME280;61578;52.002;5.468;2024-01-15T01:25:23;100231.94;;;2.21;86.28
73341;BME280;61578;52.002;5.468;2024-01-15T01:25:54;100242.25;;;2.25;85.97
73341;BME280;61578;52.002;5.468;2024-01-15T01:26:25;100240.38;;;2.28;85.72
73341;BME280;61578;52.002;5.468;2024-01-15T01:26:55;100222.47;;;2.17;86.09
73341;BME280;61578;52.002;5.468;2024-01-15T01:27:26;100241.41;;;2.24;85.92
73341;BME280;61578;52.002;5.468;2024-01-15T01:27:57;100239.59;;;2.26;85.59
73341;BME280;61578;52.002;5.468;2024-01-15T01:28:28;100236.16;;;2.24;85.66
73341;BME280;61578;52.002;5.468;2024-01-15T01:28:59;100211.47;;;2.09;85.72
73341;BME280;61578;52.002;5.468;2024-01-15T01:29:29;100219.19;;;2.12;85.69
73341;BME280;61578;52.002;5.468;2024-01-15T01:30:03;100246.53;;;2.27;85.89
73341;BME280;61578;52.002;5.468;2024-01-15T01:30:34;100238.69;;;2.27;85.97
73341;BME280;61578;52.002;5.468;2024-01-15T01:31:05;100229.97;;;2.27;85.92
73341;BME280;61578;52.002;5.468;2024-01-15T01:31:36;100233.44;;;2.27;85.97
73341;BME280;61578;52.002;5.468;2024-01-15T01:32:13;100239.47;;;2.29;85.65
73341;BME280;61578;52.002;5.468;2024-01-15T01:32:43;100241.19;;;2.30;85.65
73341;BME280;61578;52.002;5.468;2024-01-15T01:33:14;100241.25;;;2.29;86.08
73341;BME280;61578;52.002;5.468;2024-01-15T01:33:45;100224.88;;;2.24;86.07
73341;BME280;61578;52.002;5.468;2024-01-15T01:34:16;100242.09;;;2.29;85.75
73341;BME280;61578;52.002;5.468;2024-01-15T01:34:47;100231.78;;;2.25;85.96
73341;BME280;61578;52.002;5.468;2024-01-15T01:35:18;100236.13;;;2.26;85.24
73341;BME280;61578;52.002;5.468;2024-01-15T01:35:49;100233.81;;;2.18;85.38
73341;BME280;61578;52.002;5.468;2024-01-15T01:36:19;100237.88;;;2.25;84.99
73341;BME280;61578;52.002;5.468;2024-01-15T01:36:50;100233.88;;;2.16;85.08
73341;BME280;61578;52.002;5.468;2024-01-15T01:37:21;100238.03;;;2.22;84.87
73341;BME280;61578;52.002;5.468;2024-01-15T01:37:51;100233.88;;;2.16;85.01
73341;BME280;61578;52.002;5.468;2024-01-15T01:38:22;100238.03;;;2.22;85.16
73341;BME280;61578;52.002;5.468;2024-01-15T01:38:53;100239.84;;;2.20;85.44
73341;BME280;61578;52.002;5.468;2024-01-15T01:39:24;100247.59;;;2.23;85.03
73341;BME280;61578;52.002;5.468;2024-01-15T01:39:54;100225.94;;;2.18;85.30
73341;BME280;61578;52.002;5.468;2024-01-15T01:40:25;100224.28;;;2.15;85.92
73341;BME280;61578;52.002;5.468;2024-01-15T01:40:56;100237.13;;;2.23;85.56
73341;BME280;61578;52.002;5.468;2024-01-15T01:41:27;100240.50;;;2.25;85.50
73341;BME280;61578;52.002;5.468;2024-01-15T01:41:57;100236.97;;;2.26;85.36
73341;BME280;61578;52.002;5.468;2024-01-15T01:42:28;100238.69;;;2.27;85.54
73341;BME280;61578;52.002;5.468;2024-01-15T01:42:59;100232.03;;;2.18;85.24
73341;BME280;61578;52.002;5.468;2024-01-15T01:43:30;100239.66;;;2.25;84.88
73341;BME280;61578;52.002;5.468;2024-01-15T01:44:00;100236.25;;;2.22;85.35
73341;BME280;61578;52.002;5.468;2024-01-15T01:44:31;100225.94;;;2.18;85.34
73341;BME280;61578;52.002;5.468;2024-01-15T01:45:02;100226.00;;;2.16;85.15
73341;BME280;61578;52.002;5.468;2024-01-15T01:45:34;100235.41;;;2.22;85.44
73341;BME280;61578;52.002;5.468;2024-01-15T01:46:05;100217.56;;;2.10;85.44
73341;BME280;61578;52.002;5.468;2024-01-15T01:46:37;100234.59;;;2.20;85.24
73341;BME280;61578;52.002;5.468;2024-01-15T01:47:12;100224.34;;;2.14;85.13
73341;BME280;61578;52.002;5.468;2024-01-15T01:47:43;100239.03;;;2.18;85.23
73341;BME280;61578;52.002;5.468;2024-01-15T01:48:14;100240.81;;;2.17;84.98
73341;BME280;61578;52.002;5.468;2024-01-15T01:48:45;100226.22;;;2.12;84.49
73341;BME280;61578;52.002;5.468;2024-01-15T01:49:17;100231.38;;;2.13;84.92
73341;BME280;61578;52.002;5.468;2024-01-15T01:49:48;100226.25;;;2.10;85.04
73341;BME280;61578;52.002;5.468;2024-01-15T01:50:19;100230.69;;;2.08;85.19
73341;BME280;61578;52.002;5.468;2024-01-15T01:50:54;100234.91;;;2.12;85.28
73341;BME280;61578;52.002;5.468;2024-01-15T01:51:27;100224.72;;;2.05;85.47
73341;BME280;61578;52.002;5.468;2024-01-15T01:52:01;100230.59;;;2.11;85.50
73341;BME280;61578;52.002;5.468;2024-01-15T01:52:34;100226.38;;;2.07;85.45
73341;BME280;61578;52.002;5.468;2024-01-15T01:53:06;100239.28;;;2.12;85.39
73341;BME280;61578;52.002;5.468;2024-01-15T01:53:38;100238.38;;;2.13;85.68
73341;BME280;61578;52.002;5.468;2024-01-15T01:54:10;100234.06;;;2.12;85.33
73341;BME280;61578;52.002;5.468;2024-01-15T01:54:44;100207.59;;;1.96;85.35
73341;BME280;61578;52.002;5.468;2024-01-15T01:55:15;100222.91;;;2.07;85.46
73341;BME280;61578;52.002;5.468;2024-01-15T01:55:47;100222.91;;;2.07;85.50
73341;BME280;61578;52.002;5.468;2024-01-15T01:56:18;100217.66;;;2.07;85.36
73341;BME280;61578;52.002;5.468;2024-01-15T01:56:51;100236.69;;;2.12;85.56
73341;BME280;61578;52.002;5.468;2024-01-15T01:57:23;100238.38;;;2.13;85.52
73341;BME280;61578;52.002;5.468;2024-01-15T01:57:55;100226.31;;;2.09;85.31
73341;BME280;61578;52.002;5.468;2024-01-15T01:58:28;100228.88;;;2.10;84.94
73341;BME280;61578;52.002;5.468;2024-01-15T01:59:01;100238.44;;;2.11;85.00
73341;BME280;61578;52.002;5.468;2024-01-15T01:59:34;100223.00;;;2.04;85.23
73341;BME280;61578;52.002;5.468;2024-01-15T02:00:07;100240.31;;;2.08;85.28
73341;BME280;61578;52.002;5.468;2024-01-15T02:00:38;100235.13;;;2.06;85.27
73341;BME280;61578;52.002;5.468;2024-01-15T02:01:10;100242.13;;;2.06;85.29
73341;BME280;61578;52.002;5.468;2024-01-15T02:01:44;100227.41;;;2.03;85.19
73341;BME280;61578;52.002;5.468;2024-01-15T02:02:15;100240.44;;;2.05;85.15
73341;BME280;61578;52.002;5.468;2024-01-15T02:02:46;100231.22;;;1.95;85.28
73341;BME280;61578;52.002;5.468;2024-01-15T02:03:17;100225.13;;;1.94;85.04
73341;BME280;61578;52.002;5.468;2024-01-15T02:03:48;100231.13;;;1.98;85.19
73341;BME280;61578;52.002;5.468;2024-01-15T02:04:19;100233.69;;;1.99;85.18
73341;BME280;61578;52.002;5.468;2024-01-15T02:04:50;100244.16;;;1.99;85.09
73341;BME280;61578;52.002;5.468;2024-01-15T02:05:22;100244.94;;;2.01;85.21
73341;BME280;61578;52.002;5.468;2024-01-15T02:05:53;100223.50;;;1.92;85.14
73341;BME280;61578;52.002;5.468;2024-01-15T02:06:24;100238.06;;;1.99;84.80
73341;BME280;61578;52.002;5.468;2024-01-15T02:06:55;100240.06;;;1.92;85.06
73341;BME280;61578;52.002;5.468;2024-01-15T02:07:26;100222.16;;;1.81;84.92
73341;BME280;61578;52.002;5.468;2024-01-15T02:07:57;100247.06;;;1.92;85.41
73341;BME280;61578;52.002;5.468;2024-01-15T02:08:28;100238.16;;;1.96;85.57
73341;BME280;61578;52.002;5.468;2024-01-15T02:08:59;100242.53;;;1.95;85.35
73341;BME280;61578;52.002;5.468;2024-01-15T02:09:31;100238.22;;;1.94;85.50
73341;BME280;61578;52.002;5.468;2024-01-15T02:10:03;100237.44;;;1.92;85.31
73341;BME280;61578;52.002;5.468;2024-01-15T02:10:34;100242.59;;;1.94;85.37
73341;BME280;61578;52.002;5.468;2024-01-15T02:11:05;100239.94;;;1.95;85.67
73341;BME280;61578;52.002;5.468;2024-01-15T02:11:36;100237.38;;;1.94;85.60
73341;BME280;61578;52.002;5.468;2024-01-15T02:12:08;100235.69;;;1.93;85.21
73341;BME280;61578;52.002;5.468;2024-01-15T02:12:39;100244.31;;;1.95;85.25
73341;BME280;61578;52.002;5.468;2024-01-15T02:13:10;100238.16;;;1.96;85.49
73341;BME280;61578;52.002;5.468;2024-01-15T02:13:42;100232.28;;;1.91;85.48
73341;BME280;61578;52.002;5.468;2024-01-15T02:14:13;100245.97;;;1.97;85.82
73341;BME280;61578;52.002;5.468;2024-01-15T02:14:44;100236.47;;;1.95;85.42
73341;BME280;61578;52.002;5.468;2024-01-15T02:15:15;100243.34;;;1.97;85.51
73341;BME280;61578;52.002;5.468;2024-01-15T02:15:46;100242.38;;;2.00;85.69
73341;BME280;61578;52.002;5.468;2024-01-15T02:16:16;100237.94;;;2.02;85.66
73341;BME280;61578;52.002;5.468;2024-01-15T02:16:48;100219.03;;;1.94;85.79
73341;BME280;61578;52.002;5.468;2024-01-15T02:17:18;100230.19;;;1.99;85.66
73341;BME280;61578;52.002;5.468;2024-01-15T02:17:59;100241.34;;;2.04;85.55
73341;BME280;61578;52.002;5.468;2024-01-15T02:18:45;100226.72;;;1.98;85.55
73341;BME280;61578;52.002;5.468;2024-01-15T02:19:17;100233.38;;;2.07;85.63
73341;BME280;61578;52.002;5.468;2024-01-15T02:19:49;100239.34;;;2.10;85.88
73341;BME280;61578;52.002;5.468;2024-01-15T02:20:20;100216.00;;;2.04;86.00
73341;BME280;61578;52.002;5.468;2024-01-15T02:20:51;100234.78;;;2.15;85.52
73341;BME280;61578;52.002;5.468;2024-01-15T02:21:22;100214.13;;;2.08;85.74
73341;BME280;61578;52.002;5.468;2024-01-15T02:21:53;100236.38;;;2.19;85.59
73341;BME280;61578;52.002;5.468;2024-01-15T02:22:24;100233.63;;;2.22;85.51
73341;BME280;61578;52.002;5.468;2024-01-15T02:23:08;100224.06;;;2.21;85.56
73341;BME280;61578;52.002;5.468;2024-01-15T02:23:43;100221.41;;;2.23;85.56
73341;BME280;61578;52.002;5.468;2024-01-15T02:24:14;100228.94;;;2.31;85.78
73341;BME280;61578;52.002;5.468;2024-01-15T02:24:45;100227.19;;;2.31;85.20
73341;BME280;61578;52.002;5.468;2024-01-15T02:25:16;100226.31;;;2.31;85.45
73341;BME280;61578;52.002;5.468;2024-01-15T02:25:47;100228.84;;;2.34;85.30
73341;BME280;61578;52.002;5.468;2024-01-15T02:26:18;100227.19;;;2.31;84.64
73341;BME280;61578;52.002;5.468;2024-01-15T02:26:49;100235.94;;;2.30;84.49
73341;BME280;61578;52.002;5.468;2024-01-15T02:27:20;100231.72;;;2.26;84.47
73341;BME280;61578;52.002;5.468;2024-01-15T02:27:51;100231.63;;;2.29;85.21
73341;BME280;61578;52.002;5.468;2024-01-15T02:28:22;100233.50;;;2.26;85.12
73341;BME280;61578;52.002;5.468;2024-01-15T02:28:53;100243.06;;;2.27;84.74
73341;BME280;61578;52.002;5.468;2024-01-15T02:29:24;100224.72;;;2.27;85.28
73341;BME280;61578;52.002;5.468;2024-01-15T02:29:56;100240.28;;;2.31;84.88
73341;BME280;61578;52.002;5.468;2024-01-15T02:30:29;100235.09;;;2.30;85.11
73341;BME280;61578;52.002;5.468;2024-01-15T02:31:01;100237.59;;;2.33;85.21
73341;BME280;61578;52.002;5.468;2024-01-15T02:31:32;100231.50;;;2.32;85.23
73341;BME280;61578;52.002;5.468;2024-01-15T02:32:06;100223.81;;;2.28;84.51
73341;BME280;61578;52.002;5.468;2024-01-15T02:32:39;100225.34;;;2.33;84.90
73341;BME280;61578;52.002;5.468;2024-01-15T02:33:11;100235.94;;;2.30;84.38
73341;BME280;61578;52.002;5.468;2024-01-15T02:33:43;100234.13;;;2.32;84.77
73341;BME280;61578;52.002;5.468;2024-01-15T02:34:16;100221.88;;;2.33;85.21
73341;BME280;61578;52.002;5.468;2024-01-15T02:34:47;100235.53;;;2.41;84.85
73341;BME280;61578;52.002;5.468;2024-01-15T02:35:17;100234.59;;;2.42;85.25
73341;BME280;61578;52.002;5.468;2024-01-15T02:35:50;100214.03;;;2.33;84.99
73341;BME280;61578;52.002;5.468;2024-01-15T02:36:21;100230.16;;;2.44;85.29
73341;BME280;61578;52.002;5.468;2024-01-15T02:36:52;100234.28;;;2.49;85.36
73341;BME280;61578;52.002;5.468;2024-01-15T02:37:23;100235.88;;;2.53;85.16
73341;BME280;61578;52.002;5.468;2024-01-15T02:37:53;100233.25;;;2.53;84.96
73341;BME280;61578;52.002;5.468;2024-01-15T02:38:24;100233.25;;;2.53;85.19
73341;BME280;61578;52.002;5.468;2024-01-15T02:38:55;100235.03;;;2.53;85.26
73341;BME280;61578;52.002;5.468;2024-01-15T02:39:25;100233.91;;;2.58;85.13
73341;BME280;61578;52.002;5.468;2024-01-15T02:39:56;100232.09;;;2.61;84.89
73341;BME280;61578;52.002;5.468;2024-01-15T02:40:27;100236.47;;;2.60;84.97
73341;BME280;61578;52.002;5.468;2024-01-15T02:40:58;100236.28;;;2.65;85.11
73341;BME280;61578;52.002;5.468;2024-01-15T02:41:29;100239.69;;;2.67;84.87
73341;BME280;61578;52.002;5.468;2024-01-15T02:41:59;100235.34;;;2.66;84.86
73341;BME280;61578;52.002;5.468;2024-01-15T02:42:30;100217.38;;;2.56;84.78
73341;BME280;61578;52.002;5.468;2024-01-15T02:43:01;100243.09;;;2.69;85.07
73341;BME280;61578;52.002;5.468;2024-01-15T02:43:32;100231.88;;;2.65;84.86
73341;BME280;61578;52.002;5.468;2024-01-15T02:44:03;100214.81;;;2.55;84.67
73341;BME280;61578;52.002;5.468;2024-01-15T02:44:33;100239.44;;;2.73;84.63
73341;BME280;61578;52.002;5.468;2024-01-15T02:45:04;100228.22;;;2.69;85.06
73341;BME280;61578;52.002;5.468;2024-01-15T02:45:35;100229.09;;;2.70;84.68